UNWW 161000Z 26005MPS 9999 BKN046CB 23/06 Q1013 R19/09//60 NOSIG RMK QFE733
QNH:(hPa/inHg/mmHg)1013 / 29.91 / 760
QFE:(hPa/inHg/mmHg)975 / 28.80 / 731
Temperature23
Dew Point6
Visibility> 10000
Weather
Cloud CoverBKN (4600);
Transition Height800 m./3700 ft.
Transition LevelFL50
SQUAWK